createdAt,value
2019-05-07T00:00:32.935Z,24.80
2019-05-07T00:03:03.292Z,26.57
2019-05-07T00:05:33.195Z,31.60
2019-05-07T00:08:02.950Z,26.12
2019-05-07T00:10:33.114Z,27.87
2019-05-07T00:13:02.325Z,26.42
2019-05-07T00:15:32.766Z,24.60
2019-05-07T00:18:03.250Z,25.37
2019-05-07T00:20:32.751Z,25.20
2019-05-07T00:23:02.920Z,26.07
2019-05-07T00:25:32.756Z,25.57
2019-05-07T00:28:02.780Z,27.13
2019-05-07T00:30:33.144Z,25.70
2019-05-07T00:33:02.888Z,26.23
2019-05-07T00:35:49.799Z,28.55
2019-05-07T00:38:22.326Z,25.37
2019-05-07T00:40:55.129Z,25.55
2019-05-07T00:43:25.591Z,25.40
2019-05-07T00:45:59.074Z,25.80
2019-05-07T00:48:27.943Z,27.37
2019-05-07T00:51:14.622Z,25.95
2019-05-07T00:53:43.505Z,25.45
2019-05-07T00:56:12.466Z,23.57
2019-05-07T00:58:42.831Z,22.30
2019-05-07T01:01:13.030Z,24.23
2019-05-07T01:03:42.516Z,23.98
2019-05-07T01:06:12.892Z,26.70
2019-05-07T01:08:43.044Z,25.55
2019-05-07T01:11:13.176Z,26.87
2019-05-07T01:13:43.167Z,25.72
2019-05-07T01:16:32.971Z,25.88
2019-05-07T01:19:02.265Z,25.97
2019-05-07T01:21:32.468Z,25.20
2019-05-07T01:24:03.276Z,23.20
2019-05-07T01:26:32.959Z,26.80
2019-05-07T01:29:02.954Z,24.32
2019-05-07T01:31:35.059Z,24.47
2019-05-07T01:36:46.802Z,26.12
2019-05-07T01:39:15.614Z,24.35
2019-05-07T01:41:44.375Z,24.92
2019-05-07T01:44:12.928Z,25.40
2019-05-07T01:46:42.255Z,25.10
2019-05-07T01:49:12.518Z,24.43
2019-05-07T01:51:42.248Z,24.70
2019-05-07T01:54:12.956Z,25.97
2019-05-07T01:56:42.717Z,26.23
2019-05-07T01:59:12.127Z,21.17
2019-05-07T02:01:42.877Z,21.27
2019-05-07T02:04:19.038Z,22.10
2019-05-07T02:07:06.117Z,24.52
2019-05-07T02:09:36.546Z,23.40
2019-05-07T02:12:07.094Z,21.02
2019-05-07T02:14:35.894Z,23.12
2019-05-07T02:17:24.096Z,23.07
2019-05-07T02:19:52.832Z,20.80
2019-05-07T02:22:22.688Z,23.00
2019-05-07T02:24:52.323Z,22.58
2019-05-07T02:27:22.143Z,23.18
2019-05-07T02:29:52.818Z,22.58
2019-05-07T02:32:24.069Z,22.20
2019-05-07T02:34:54.620Z,21.17
2019-05-07T02:37:28.675Z,24.70
2019-05-07T02:39:56.406Z,21.95
2019-05-07T02:42:25.269Z,23.02
2019-05-07T02:45:04.235Z,22.22
2019-05-07T02:47:33.437Z,23.15
2019-05-07T02:50:13.404Z,23.20
2019-05-07T02:52:53.328Z,22.20
2019-05-07T02:55:23.241Z,22.73
2019-05-07T02:57:53.974Z,24.47
2019-05-07T03:00:24.220Z,20.62
2019-05-07T03:02:53.521Z,21.35
2019-05-07T03:05:23.045Z,25.30
2019-05-07T03:07:53.592Z,24.72
2019-05-07T03:10:23.744Z,22.20
2019-05-07T03:12:53.776Z,23.42
2019-05-07T03:15:24.154Z,22.80
2019-05-07T03:17:53.983Z,24.65
2019-05-07T03:20:24.611Z,24.75
2019-05-07T03:22:54.356Z,25.85
2019-05-07T03:25:34.012Z,26.93
2019-05-07T03:28:04.416Z,22.22
2019-05-07T03:30:45.719Z,23.55
2019-05-07T03:36:07.071Z,26.93
2019-05-07T03:38:33.463Z,25.37
2019-05-07T03:41:03.866Z,25.23
2019-05-07T03:43:32.788Z,25.75
2019-05-07T03:46:06.216Z,26.50
2019-05-07T03:48:36.802Z,26.68
2019-05-07T03:51:05.666Z,26.55
2019-05-07T03:53:34.526Z,27.90
2019-05-07T03:56:04.041Z,24.32
2019-05-07T03:58:34.109Z,26.80
2019-05-07T04:01:04.436Z,25.23
2019-05-07T04:03:34.316Z,21.90
2019-05-07T04:06:04.080Z,25.00
2019-05-07T04:08:33.558Z,23.45
2019-05-07T04:11:03.576Z,24.18
2019-05-07T04:13:33.773Z,25.77
2019-05-07T04:16:03.969Z,24.52
2019-05-07T04:18:33.622Z,27.40
2019-05-07T04:21:03.852Z,47.43
2019-05-07T04:23:34.192Z,54.05
2019-05-07T04:26:07.645Z,61.33
2019-05-07T04:28:43.403Z,32.55
2019-05-07T04:31:14.154Z,37.38
2019-05-07T04:33:43.991Z,30.77
2019-05-07T04:36:14.795Z,28.20
2019-05-07T04:38:44.157Z,26.82
2019-05-07T04:41:13.958Z,30.85
2019-05-07T04:43:43.660Z,47.33
2019-05-07T04:46:14.387Z,61.02
2019-05-07T04:48:43.928Z,55.95
2019-05-07T04:51:15.038Z,31.68
2019-05-07T04:53:44.011Z,42.67
2019-05-07T04:56:14.075Z,31.12
2019-05-07T04:58:43.507Z,29.32
2019-05-07T05:01:14.139Z,23.55
2019-05-07T05:03:43.845Z,23.87
2019-05-07T05:06:13.624Z,25.57
2019-05-07T05:08:43.670Z,22.82
2019-05-07T05:11:12.953Z,30.57
2019-05-07T05:13:44.488Z,23.55
2019-05-07T05:16:25.989Z,24.45
2019-05-07T05:18:56.256Z,22.67
2019-05-07T05:21:32.817Z,25.92
2019-05-07T05:24:03.269Z,23.75
2019-05-07T05:26:32.580Z,23.67
2019-05-07T05:29:02.441Z,23.22
2019-05-07T05:31:33.042Z,23.60
2019-05-07T05:34:02.261Z,22.62
2019-05-07T05:36:33.039Z,23.55
2019-05-07T05:39:02.472Z,24.70
2019-05-07T05:41:34.108Z,25.37
2019-05-07T05:44:04.947Z,20.50
2019-05-07T05:46:34.375Z,19.65
2019-05-07T05:49:03.244Z,21.52
2019-05-07T05:51:33.740Z,17.95
2019-05-07T05:54:22.364Z,20.23
2019-05-07T05:56:52.905Z,17.95
2019-05-07T05:59:37.018Z,21.33
2019-05-07T06:02:03.387Z,18.90
2019-05-07T06:04:45.690Z,23.65
2019-05-07T06:07:18.643Z,18.15
2019-05-07T06:09:52.793Z,18.40
2019-05-07T06:12:35.561Z,17.73
2019-05-07T06:15:14.054Z,18.10
2019-05-07T06:17:47.398Z,12.35
2019-05-07T06:20:33.616Z,15.75
2019-05-07T06:23:12.687Z,14.15
2019-05-07T06:25:42.791Z,12.30
2019-05-07T06:28:12.620Z,12.70
2019-05-07T06:30:41.984Z,16.45
2019-05-07T06:33:12.446Z,12.50
2019-05-07T06:35:42.856Z,11.15
2019-05-07T06:38:13.011Z,15.20
2019-05-07T06:40:59.518Z,8.93
2019-05-07T06:43:32.519Z,10.23
2019-05-07T06:46:02.176Z,9.78
2019-05-07T06:48:39.187Z,9.10
2019-05-07T06:51:03.097Z,8.13
2019-05-07T06:53:33.288Z,6.75
2019-05-07T06:56:03.234Z,10.18
2019-05-07T06:58:36.533Z,9.18
2019-05-07T07:01:12.130Z,8.03
2019-05-07T07:03:58.691Z,10.83
2019-05-07T07:06:29.253Z,8.68
2019-05-07T07:09:15.360Z,8.43
2019-05-07T07:11:45.901Z,8.48
2019-05-07T07:14:14.439Z,7.00
2019-05-07T07:16:43.017Z,4.57
2019-05-07T07:19:12.438Z,10.93
2019-05-07T07:21:42.151Z,8.10
2019-05-07T07:24:12.721Z,7.43
2019-05-07T07:26:42.229Z,7.50
2019-05-07T07:29:12.794Z,7.57
2019-05-07T07:31:46.225Z,5.20
2019-05-07T07:34:15.000Z,7.83
2019-05-07T07:37:01.797Z,6.73
2019-05-07T07:39:18.434Z,5.67
2019-05-07T07:41:52.267Z,5.93
2019-05-07T07:44:22.323Z,7.40
2019-05-07T07:46:53.064Z,8.00
2019-05-07T07:49:22.227Z,7.50
2019-05-07T07:51:52.608Z,5.13
2019-05-07T07:54:22.666Z,6.30
2019-05-07T07:57:05.281Z,6.80
2019-05-07T07:59:35.579Z,6.80
2019-05-07T08:02:05.954Z,7.20
2019-05-07T08:04:34.752Z,7.23
2019-05-07T08:07:03.441Z,7.60
2019-05-07T08:09:33.660Z,5.30
2019-05-07T08:12:02.838Z,6.27
2019-05-07T08:14:51.949Z,4.77
2019-05-07T08:17:22.371Z,6.10
2019-05-07T08:19:51.963Z,4.40
2019-05-07T08:22:22.650Z,5.97
2019-05-07T08:24:51.944Z,6.63
2019-05-07T08:27:22.200Z,5.73
2019-05-07T08:29:52.514Z,5.73
2019-05-07T08:32:22.865Z,6.23
2019-05-07T08:34:52.985Z,8.10
2019-05-07T08:37:24.326Z,5.53
2019-05-07T08:39:52.092Z,7.47
2019-05-07T08:42:22.734Z,6.90
2019-05-07T08:45:04.720Z,5.77
2019-05-07T08:47:37.376Z,7.00
2019-05-07T08:50:06.975Z,6.13
2019-05-07T08:52:35.549Z,5.50
2019-05-07T08:55:06.250Z,8.47
2019-05-07T08:57:34.747Z,5.10
2019-05-07T09:00:05.092Z,5.80
2019-05-07T09:02:33.726Z,5.23
2019-05-07T09:05:03.041Z,5.40
2019-05-07T09:07:32.288Z,4.03
2019-05-07T09:10:21.873Z,5.47
2019-05-07T09:12:52.472Z,4.60
2019-05-07T09:15:22.607Z,4.60
2019-05-07T09:17:52.703Z,4.30
2019-05-07T09:20:22.815Z,3.93
2019-05-07T09:22:51.869Z,5.97
2019-05-07T09:25:22.264Z,8.63
2019-05-07T09:27:52.842Z,4.87
2019-05-07T09:30:38.577Z,4.93
2019-05-07T09:33:12.468Z,6.13
2019-05-07T09:35:42.818Z,5.50
2019-05-07T09:38:12.165Z,5.43
2019-05-07T09:40:42.173Z,4.17
2019-05-07T09:43:11.763Z,3.50
2019-05-07T09:45:42.098Z,7.53
2019-05-07T09:48:12.370Z,4.37
2019-05-07T09:50:42.787Z,6.57
2019-05-07T09:53:12.735Z,5.53
2019-05-07T09:55:42.522Z,5.03
2019-05-07T09:58:12.532Z,6.43
2019-05-07T10:00:42.469Z,5.20
2019-05-07T10:03:12.689Z,4.47
2019-05-07T10:05:42.677Z,7.10
2019-05-07T10:08:12.935Z,6.93
2019-05-07T10:11:04.299Z,7.63
2019-05-07T10:13:34.534Z,4.20
2019-05-07T10:16:04.340Z,9.70
2019-05-07T10:18:33.131Z,5.90
2019-05-07T10:21:02.518Z,4.97
2019-05-07T10:23:31.408Z,5.23
2019-05-07T10:26:01.676Z,4.67
2019-05-07T10:28:32.068Z,5.60
2019-05-07T10:31:01.117Z,5.40
2019-05-07T10:33:31.771Z,5.67
2019-05-07T10:36:01.947Z,6.03
2019-05-07T10:38:30.460Z,5.87
2019-05-07T10:40:59.081Z,7.20
2019-05-07T10:43:27.692Z,5.50
2019-05-07T10:45:57.515Z,5.20
2019-05-07T10:48:32.024Z,5.23
2019-05-07T10:51:02.481Z,6.53
2019-05-07T10:53:32.010Z,6.70
2019-05-07T10:56:02.659Z,6.67
2019-05-07T10:58:32.001Z,5.27
2019-05-07T11:01:02.853Z,6.73
2019-05-07T11:03:32.403Z,6.80
2019-05-07T11:06:01.160Z,6.73
2019-05-07T11:08:29.793Z,6.83
2019-05-07T11:10:58.391Z,7.17
2019-05-07T11:13:26.953Z,9.80
2019-05-07T11:16:06.326Z,6.60
2019-05-07T11:18:48.372Z,8.57
2019-05-07T11:21:18.643Z,8.60
2019-05-07T11:23:47.131Z,5.23
2019-05-07T11:26:35.045Z,4.80
2019-05-07T11:29:03.700Z,6.33
2019-05-07T11:31:33.080Z,7.20
2019-05-07T11:34:02.803Z,5.13
2019-05-07T11:36:32.018Z,7.07
2019-05-07T11:39:01.813Z,4.63
2019-05-07T11:41:48.077Z,10.63
2019-05-07T11:44:17.936Z,5.37
2019-05-07T11:47:04.721Z,6.87
2019-05-07T11:49:52.449Z,5.23
2019-05-07T11:52:22.854Z,5.33
2019-05-07T11:54:52.521Z,6.40
2019-05-07T11:57:22.127Z,5.77
2019-05-07T12:00:12.886Z,6.23
2019-05-07T12:02:42.362Z,7.10
2019-05-07T12:05:12.135Z,6.40
2019-05-07T12:07:41.958Z,4.70
2019-05-07T12:10:12.174Z,6.77
2019-05-07T12:12:42.421Z,3.70
2019-05-07T12:15:12.469Z,5.37
2019-05-07T12:17:42.824Z,4.20
2019-05-07T12:20:12.989Z,5.60
2019-05-07T12:22:47.881Z,5.43
2019-05-07T12:25:17.465Z,5.30
2019-05-07T12:27:47.603Z,5.23
2019-05-07T12:30:22.784Z,5.20
2019-05-07T12:33:11.937Z,4.40
2019-05-07T12:35:41.924Z,4.30
2019-05-07T12:38:12.677Z,4.60
2019-05-07T12:40:41.946Z,5.80
2019-05-07T12:43:11.320Z,6.20
2019-05-07T12:45:41.986Z,6.27
2019-05-07T12:48:12.185Z,6.63
2019-05-07T12:50:40.327Z,4.87
2019-05-07T12:53:13.088Z,4.90
2019-05-07T12:55:58.346Z,5.47
2019-05-07T12:58:46.198Z,4.17
2019-05-07T13:01:16.423Z,6.17
2019-05-07T13:04:04.114Z,5.20
2019-05-07T13:06:53.679Z,4.37
2019-05-07T13:09:22.362Z,7.30
2019-05-07T13:11:52.534Z,5.23
2019-05-07T13:14:21.794Z,5.03
2019-05-07T13:16:52.264Z,5.40
2019-05-07T13:19:22.566Z,6.40
2019-05-07T13:22:12.421Z,6.20
2019-05-07T13:24:42.423Z,6.33
2019-05-07T13:27:31.872Z,6.20
2019-05-07T13:30:02.396Z,5.90
2019-05-07T13:32:32.067Z,4.43
2019-05-07T13:35:02.699Z,5.30
2019-05-07T13:38:01.697Z,5.23
2019-05-07T13:40:38.073Z,5.50
2019-05-07T13:43:18.200Z,4.07
2019-05-07T13:46:06.763Z,6.30
2019-05-07T13:48:37.131Z,4.77
2019-05-07T13:51:05.859Z,6.33
2019-05-07T13:53:35.276Z,5.87
2019-05-07T13:56:03.932Z,5.17
2019-05-07T13:58:33.009Z,5.90
2019-05-07T14:01:08.835Z,5.10
2019-05-07T14:03:37.489Z,4.40
2019-05-07T14:06:06.054Z,4.70
2019-05-07T14:08:36.410Z,4.80
2019-05-07T14:11:05.027Z,6.60
2019-05-07T14:13:33.874Z,5.10
2019-05-07T14:16:09.409Z,4.40
2019-05-07T14:18:39.446Z,4.30
2019-05-07T14:21:07.903Z,4.17
2019-05-07T14:23:36.955Z,3.70
2019-05-07T14:26:06.368Z,3.42
2019-05-07T14:28:34.703Z,4.60
2019-05-07T14:31:03.430Z,4.43
2019-05-07T14:33:49.949Z,3.77
2019-05-07T14:36:22.930Z,4.13
2019-05-07T14:38:52.744Z,3.83
2019-05-07T14:41:25.272Z,4.47
2019-05-07T14:43:56.584Z,4.20
2019-05-07T14:46:25.346Z,3.93
2019-05-07T14:48:54.037Z,3.50
2019-05-07T14:51:22.710Z,3.90
2019-05-07T14:53:51.370Z,4.43
2019-05-07T14:56:19.847Z,3.80
2019-05-07T14:58:48.613Z,4.13
2019-05-07T15:01:17.315Z,4.50
2019-05-07T15:03:46.218Z,3.83
2019-05-07T15:06:14.813Z,5.37
2019-05-07T15:08:43.768Z,4.70
2019-05-07T15:11:12.392Z,4.40
2019-05-07T15:13:42.734Z,4.07
2019-05-07T15:16:12.200Z,3.97
2019-05-07T15:18:43.564Z,4.87
2019-05-07T15:21:13.206Z,5.03
2019-05-07T15:23:42.549Z,6.43
2019-05-07T15:26:12.853Z,5.63
2019-05-07T15:28:43.306Z,6.80
2019-05-07T15:31:16.370Z,6.13
2019-05-07T15:33:45.012Z,7.30
2019-05-07T15:36:13.665Z,6.00
2019-05-07T15:38:42.932Z,7.63
2019-05-07T15:41:11.757Z,6.33
2019-05-07T15:43:43.819Z,8.00
2019-05-07T15:46:12.171Z,7.50
2019-05-07T15:48:42.032Z,8.37
2019-05-07T15:51:11.861Z,7.60
2019-05-07T15:53:42.720Z,8.10
2019-05-07T15:56:12.489Z,8.73
2019-05-07T15:58:42.580Z,8.77
2019-05-07T16:01:12.877Z,8.43
2019-05-07T16:03:43.370Z,8.90
2019-05-07T16:06:12.653Z,8.90
2019-05-07T16:08:43.002Z,9.73
2019-05-07T16:11:12.524Z,9.77
2019-05-07T16:13:45.213Z,9.70
2019-05-07T16:16:13.731Z,10.77
2019-05-07T16:18:55.609Z,9.67
2019-05-07T16:21:24.209Z,10.00
2019-05-07T16:23:54.816Z,10.33
2019-05-07T16:26:23.037Z,10.50
2019-05-07T16:28:53.309Z,9.80
2019-05-07T16:31:24.432Z,11.13
2019-05-07T16:33:52.227Z,10.77
2019-05-07T16:36:21.957Z,9.53
2019-05-07T16:38:52.688Z,10.93
2019-05-07T16:41:22.382Z,11.80
2019-05-07T16:43:52.420Z,11.30
2019-05-07T16:46:22.438Z,11.30
2019-05-07T16:48:50.736Z,12.83
2019-05-07T16:51:19.278Z,11.83
2019-05-07T16:53:47.927Z,12.20
2019-05-07T16:56:16.520Z,13.17
2019-05-07T16:59:01.822Z,10.87
2019-05-07T17:01:32.368Z,13.07
2019-05-07T17:04:02.731Z,11.87
2019-05-07T17:06:32.191Z,12.60
2019-05-07T17:09:13.772Z,11.83
2019-05-07T17:11:43.680Z,12.97
2019-05-07T17:14:12.920Z,11.03
2019-05-07T17:16:41.429Z,11.53
2019-05-07T17:19:11.786Z,12.17
2019-05-07T17:21:40.194Z,11.73
2019-05-07T17:24:08.764Z,11.27
2019-05-07T17:26:37.318Z,11.90
2019-05-07T17:29:05.929Z,11.60
2019-05-07T17:31:34.158Z,11.30
2019-05-07T17:34:02.638Z,11.00
2019-05-07T17:36:33.023Z,12.40
2019-05-07T17:39:02.792Z,11.90
2019-05-07T17:41:32.274Z,12.83
2019-05-07T17:44:02.747Z,11.53
2019-05-07T17:46:32.388Z,11.10
2019-05-07T17:49:02.417Z,11.67
2019-05-07T17:51:42.079Z,12.07
2019-05-07T17:54:13.184Z,12.60
2019-05-07T17:56:42.247Z,11.87
2019-05-07T17:59:12.212Z,11.60
2019-05-07T18:01:52.983Z,12.27
2019-05-07T18:04:21.647Z,12.60
2019-05-07T18:06:52.144Z,11.40
2019-05-07T18:09:22.430Z,12.33
2019-05-07T18:11:52.109Z,12.03
2019-05-07T18:14:22.647Z,12.00
2019-05-07T18:16:54.731Z,12.70
2019-05-07T18:19:23.241Z,12.90
2019-05-07T18:21:52.462Z,11.53
2019-05-07T18:24:22.391Z,12.23
2019-05-07T18:26:52.620Z,13.67
2019-05-07T18:29:22.507Z,12.70
2019-05-07T18:31:53.063Z,11.80
2019-05-07T18:34:21.448Z,14.27
2019-05-07T18:36:49.705Z,14.30
2019-05-07T18:39:20.341Z,13.97
2019-05-07T18:41:48.506Z,13.53
2019-05-07T18:44:16.817Z,13.80
2019-05-07T18:46:45.053Z,13.63
2019-05-07T18:49:13.490Z,12.97
2019-05-07T18:51:42.702Z,13.17
2019-05-07T18:54:12.031Z,14.07
2019-05-07T18:56:42.110Z,14.87
2019-05-07T18:59:11.387Z,14.78
2019-05-07T19:01:42.282Z,13.60
2019-05-07T19:04:12.672Z,15.10
2019-05-07T19:06:42.408Z,14.18
2019-05-07T19:09:11.134Z,15.15
2019-05-07T19:11:39.826Z,15.60
2019-05-07T19:14:08.420Z,15.78
2019-05-07T19:16:36.921Z,15.48
2019-05-07T19:19:05.850Z,16.52
2019-05-07T19:21:34.568Z,16.93
2019-05-07T19:24:03.736Z,16.35
2019-05-07T19:26:32.524Z,15.63
2019-05-07T19:29:02.588Z,16.30
2019-05-07T19:31:32.569Z,16.45
2019-05-07T19:34:03.034Z,16.80
2019-05-07T19:36:32.251Z,17.30
2019-05-07T19:39:01.986Z,17.82
2019-05-07T19:41:32.075Z,17.23
2019-05-07T19:44:02.009Z,18.42
2019-05-07T19:46:30.932Z,18.17
2019-05-07T19:48:59.516Z,18.55
2019-05-07T19:51:28.078Z,17.65
2019-05-07T19:53:56.557Z,18.17
2019-05-07T19:56:25.382Z,17.07
2019-05-07T19:58:54.397Z,18.00
2019-05-07T20:01:24.895Z,19.70
2019-05-07T20:03:53.386Z,20.25
2019-05-07T20:06:23.351Z,19.48
2019-05-07T20:08:52.898Z,21.20
2019-05-07T20:11:23.198Z,20.80
2019-05-07T20:13:52.405Z,22.20
2019-05-07T20:16:22.922Z,19.30
2019-05-07T20:18:52.449Z,19.57
2019-05-07T20:21:22.835Z,20.00
2019-05-07T20:23:52.726Z,21.70
2019-05-07T20:26:23.183Z,21.52
2019-05-07T20:28:52.641Z,21.25
2019-05-07T20:31:22.712Z,21.62
2019-05-07T20:33:53.193Z,20.95
2019-05-07T20:36:22.206Z,23.35
2019-05-07T20:38:52.152Z,22.40
2019-05-07T20:41:23.089Z,22.67
2019-05-07T20:43:52.370Z,23.18
2019-05-07T20:46:21.432Z,24.70
2019-05-07T20:48:52.482Z,25.08
2019-05-07T20:51:22.953Z,24.52
2019-05-07T20:53:58.695Z,24.07
2019-05-07T20:56:32.297Z,22.75
2019-05-07T20:59:02.960Z,22.73
2019-05-07T21:01:32.929Z,22.48
2019-05-07T21:04:02.229Z,21.30
2019-05-07T21:06:32.915Z,23.77
2019-05-07T21:09:01.491Z,21.50
2019-05-07T21:11:32.326Z,22.02
2019-05-07T21:14:03.080Z,21.45
2019-05-07T21:16:32.867Z,24.12
2019-05-07T21:19:02.165Z,25.02
2019-05-07T21:21:32.749Z,22.22
2019-05-07T21:24:02.084Z,23.90
2019-05-07T21:26:32.668Z,23.92
2019-05-07T21:29:03.029Z,25.15
2019-05-07T21:31:32.283Z,21.97
2019-05-07T21:34:03.129Z,22.55
2019-05-07T21:36:32.512Z,22.40
2019-05-07T21:39:02.258Z,23.55
2019-05-07T21:41:33.549Z,24.05
2019-05-07T21:44:01.839Z,21.37
2019-05-07T21:46:32.798Z,24.57
2019-05-07T21:49:02.605Z,24.15
2019-05-07T21:51:31.757Z,24.50
2019-05-07T21:54:12.091Z,26.82
2019-05-07T21:56:54.645Z,25.08
2019-05-07T21:59:24.955Z,25.85
2019-05-07T22:01:58.006Z,26.12
2019-05-07T22:04:26.973Z,29.42
2019-05-07T22:06:55.429Z,28.50
2019-05-07T22:09:24.169Z,32.05
2019-05-07T22:11:53.775Z,31.48
2019-05-07T22:14:22.637Z,33.40
2019-05-07T22:16:54.301Z,39.03
2019-05-07T22:19:21.305Z,37.10
2019-05-07T22:21:52.180Z,30.43
2019-05-07T22:24:22.339Z,39.90
2019-05-07T22:26:51.173Z,30.10
2019-05-07T22:29:19.626Z,34.55
2019-05-07T22:31:53.150Z,32.60
2019-05-07T22:34:29.574Z,31.17
2019-05-07T22:36:58.030Z,30.12
2019-05-07T22:39:26.793Z,27.87
2019-05-07T22:41:55.259Z,29.48
2019-05-07T22:44:26.355Z,27.35
2019-05-07T22:46:54.704Z,28.83
2019-05-07T22:49:23.238Z,30.10
2019-05-07T22:51:52.611Z,29.82
2019-05-07T22:54:22.733Z,26.57
2019-05-07T22:56:59.320Z,25.10
2019-05-07T22:59:28.154Z,28.05
2019-05-07T23:01:56.610Z,27.00
2019-05-07T23:04:25.543Z,23.90
2019-05-07T23:06:53.982Z,27.22
2019-05-07T23:09:22.791Z,30.30
2019-05-07T23:11:52.605Z,28.60
2019-05-07T23:14:22.673Z,29.55
2019-05-07T23:16:54.941Z,29.35
2019-05-07T23:19:22.261Z,26.37
2019-05-07T23:21:52.191Z,27.40
2019-05-07T23:24:23.715Z,27.22
2019-05-07T23:26:53.669Z,26.77
2019-05-07T23:29:22.745Z,24.57
2019-05-07T23:31:52.896Z,27.27
2019-05-07T23:34:22.298Z,28.30
2019-05-07T23:36:53.002Z,27.13
2019-05-07T23:39:22.690Z,15.20
2019-05-07T23:41:55.930Z,20.65
2019-05-07T23:44:24.760Z,18.77
2019-05-07T23:46:53.530Z,17.60
2019-05-07T23:49:23.225Z,19.07
2019-05-07T23:51:53.050Z,16.75
2019-05-07T23:54:23.165Z,16.93
2019-05-07T23:57:05.437Z,18.20
2019-05-07T23:59:22.432Z,16.73
